sensor_id;sensor_type;location;lat;lon;timestamp;pressure;altitude;pressure_sealevel;temperature;humidity
60874;BME280;46715;40.642;-7.920;2023-05-03T00:01:45;95797.50;;;21.34;54.65
60874;BME280;46715;40.642;-7.920;2023-05-03T00:03:47;95802.91;;;21.38;54.38
60874;BME280;46715;40.642;-7.920;2023-05-03T00:05:50;95800.66;;;21.40;54.25
60874;BME280;46715;40.642;-7.920;2023-05-03T00:07:51;95794.28;;;21.44;53.69
60874;BME280;46715;40.642;-7.920;2023-05-03T00:09:52;95804.28;;;21.51;53.76
60874;BME280;46715;40.642;-7.920;2023-05-03T00:11:53;95807.41;;;21.53;53.73
60874;BME280;46715;40.642;-7.920;2023-05-03T00:13:53;95810.88;;;21.57;53.10
60874;BME280;46715;40.642;-7.920;2023-05-03T00:15:55;95811.25;;;21.56;53.64
60874;BME280;46715;40.642;-7.920;2023-05-03T00:17:56;95805.75;;;21.49;54.47
60874;BME280;46715;40.642;-7.920;2023-05-03T00:19:57;95797.38;;;21.46;54.17
60874;BME280;46715;40.642;-7.920;2023-05-03T00:21:58;95793.44;;;21.40;54.44
60874;BME280;46715;40.642;-7.920;2023-05-03T00:23:59;95800.25;;;21.38;54.20
60874;BME280;46715;40.642;-7.920;2023-05-03T00:26:00;95784.75;;;21.40;53.72
60874;BME280;46715;40.642;-7.920;2023-05-03T00:28:01;95797.38;;;21.46;53.10
60874;BME280;46715;40.642;-7.920;2023-05-03T00:30:02;95792.84;;;21.47;52.91
60874;BME280;46715;40.642;-7.920;2023-05-03T00:32:03;95794.03;;;21.50;52.78
60874;BME280;46715;40.642;-7.920;2023-05-03T00:34:05;95788.31;;;21.48;53.09
60874;BME280;46715;40.642;-7.920;2023-05-03T00:36:12;95796.28;;;21.48;53.94
60874;BME280;46715;40.642;-7.920;2023-05-03T00:38:14;95796.88;;;21.41;54.31
60874;BME280;46715;40.642;-7.920;2023-05-03T00:40:18;95800.16;;;21.34;54.49
60874;BME280;46715;40.642;-7.920;2023-05-03T00:42:20;95801.63;;;21.32;54.75
60874;BME280;46715;40.642;-7.920;2023-05-03T00:44:22;95799.66;;;21.28;55.63
60874;BME280;46715;40.642;-7.920;2023-05-03T00:46:23;95797.72;;;21.25;56.24
60874;BME280;46715;40.642;-7.920;2023-05-03T00:48:25;95800.63;;;21.20;56.11
60874;BME280;46715;40.642;-7.920;2023-05-03T00:50:26;95797.91;;;21.17;56.30
60874;BME280;46715;40.642;-7.920;2023-05-03T00:52:28;95789.88;;;21.13;56.25
60874;BME280;46715;40.642;-7.920;2023-05-03T00:54:29;95784.22;;;21.15;56.10
60874;BME280;46715;40.642;-7.920;2023-05-03T00:56:30;95783.44;;;21.14;56.60
60874;BME280;46715;40.642;-7.920;2023-05-03T00:58:32;95791.00;;;21.12;56.39
60874;BME280;46715;40.642;-7.920;2023-05-03T01:00:35;95792.19;;;21.15;56.23
60874;BME280;46715;40.642;-7.920;2023-05-03T01:02:36;95787.63;;;21.15;56.62
60874;BME280;46715;40.642;-7.920;2023-05-03T01:04:38;95781.50;;;21.11;57.00
60874;BME280;46715;40.642;-7.920;2023-05-03T01:07:06;95774.25;;;21.08;56.59
60874;BME280;46715;40.642;-7.920;2023-05-03T01:12:18;95796.66;;;20.94;57.24
60874;BME280;46715;40.642;-7.920;2023-05-03T01:16:43;95786.63;;;20.84;56.82
60874;BME280;46715;40.642;-7.920;2023-05-03T01:18:49;95772.50;;;20.80;56.68
60874;BME280;46715;40.642;-7.920;2023-05-03T01:20:54;95772.50;;;20.80;56.16
60874;BME280;46715;40.642;-7.920;2023-05-03T01:23:04;95762.41;;;20.86;55.83
60874;BME280;46715;40.642;-7.920;2023-05-03T01:25:11;95763.25;;;20.90;56.13
60874;BME280;46715;40.642;-7.920;2023-05-03T01:27:13;95761.81;;;20.92;56.55
60874;BME280;46715;40.642;-7.920;2023-05-03T01:29:14;95768.66;;;20.93;56.06
60874;BME280;46715;40.642;-7.920;2023-05-03T01:31:52;95758.72;;;20.90;56.81
60874;BME280;46715;40.642;-7.920;2023-05-03T01:34:23;95747.78;;;20.92;57.17
60874;BME280;46715;40.642;-7.920;2023-05-03T01:36:34;95751.63;;;20.94;57.28
60874;BME280;46715;40.642;-7.920;2023-05-03T01:38:37;95740.25;;;20.94;57.43
60874;BME280;46715;40.642;-7.920;2023-05-03T01:40:42;95753.59;;;20.98;57.63
60874;BME280;46715;40.642;-7.920;2023-05-03T01:42:45;95758.91;;;20.98;57.78
60874;BME280;46715;40.642;-7.920;2023-05-03T01:44:49;95755.06;;;20.95;57.56
60874;BME280;46715;40.642;-7.920;2023-05-03T01:46:50;95757.63;;;20.91;56.87
60874;BME280;46715;40.642;-7.920;2023-05-03T01:48:52;95750.34;;;20.88;55.71
60874;BME280;46715;40.642;-7.920;2023-05-03T01:50:54;95739.66;;;20.85;54.88
60874;BME280;46715;40.642;-7.920;2023-05-03T01:52:54;95743.09;;;20.85;53.32
60874;BME280;46715;40.642;-7.920;2023-05-03T01:54:55;95741.97;;;20.86;53.60
60874;BME280;46715;40.642;-7.920;2023-05-03T01:56:56;95740.88;;;20.87;54.63
60874;BME280;46715;40.642;-7.920;2023-05-03T01:59:00;95739.66;;;20.85;54.44
60874;BME280;46715;40.642;-7.920;2023-05-03T02:01:03;95743.03;;;20.82;54.42
60874;BME280;46715;40.642;-7.920;2023-05-03T02:03:06;95741.13;;;20.82;55.33
60874;BME280;46715;40.642;-7.920;2023-05-03T02:05:09;95743.22;;;20.73;55.91
60874;BME280;46715;40.642;-7.920;2023-05-03T02:07:11;95750.97;;;20.66;55.36
60874;BME280;46715;40.642;-7.920;2023-05-03T02:09:12;95753.38;;;20.55;55.51
60874;BME280;46715;40.642;-7.920;2023-05-03T02:11:14;95770.22;;;20.47;55.97
60874;BME280;46715;40.642;-7.920;2023-05-03T02:13:15;95782.44;;;20.35;57.07
60874;BME280;46715;40.642;-7.920;2023-05-03T02:15:17;95815.50;;;20.25;58.34
60874;BME280;46715;40.642;-7.920;2023-05-03T02:17:19;95825.28;;;20.25;57.58
60874;BME280;46715;40.642;-7.920;2023-05-03T02:19:20;95807.78;;;20.20;56.59
60874;BME280;46715;40.642;-7.920;2023-05-03T02:21:21;95813.72;;;20.01;57.05
60874;BME280;46715;40.642;-7.920;2023-05-03T02:23:23;95816.19;;;19.94;57.74
60874;BME280;46715;40.642;-7.920;2023-05-03T02:25:25;95794.63;;;19.92;57.96
60874;BME280;46715;40.642;-7.920;2023-05-03T02:27:25;95802.34;;;19.85;58.34
60874;BME280;46715;40.642;-7.920;2023-05-03T02:29:26;95811.97;;;19.77;59.06
60874;BME280;46715;40.642;-7.920;2023-05-03T02:31:27;95810.22;;;19.69;59.27
60874;BME280;46715;40.642;-7.920;2023-05-03T02:33:31;95816.50;;;19.64;59.47
60874;BME280;46715;40.642;-7.920;2023-05-03T02:35:32;95821.72;;;19.61;59.72
60874;BME280;46715;40.642;-7.920;2023-05-03T02:37:33;95809.16;;;19.57;60.50
60874;BME280;46715;40.642;-7.920;2023-05-03T02:39:38;95813.00;;;19.60;60.31
60874;BME280;46715;40.642;-7.920;2023-05-03T02:41:39;95814.53;;;19.61;60.38
60874;BME280;46715;40.642;-7.920;2023-05-03T02:43:40;95811.13;;;19.61;60.49
60874;BME280;46715;40.642;-7.920;2023-05-03T02:45:42;95809.94;;;19.58;60.38
60874;BME280;46715;40.642;-7.920;2023-05-03T02:47:45;95811.13;;;19.61;60.52
60874;BME280;46715;40.642;-7.920;2023-05-03T02:49:48;95801.41;;;19.65;60.55
60874;BME280;46715;40.642;-7.920;2023-05-03T02:51:50;95806.03;;;19.68;60.72
60874;BME280;46715;40.642;-7.920;2023-05-03T02:53:52;95797.88;;;19.73;60.54
60874;BME280;46715;40.642;-7.920;2023-05-03T02:55:53;95799.06;;;19.75;60.57
60874;BME280;46715;40.642;-7.920;2023-05-03T02:57:55;95793.84;;;19.79;60.35
60874;BME280;46715;40.642;-7.920;2023-05-03T03:00:03;95790.66;;;19.86;60.33
60874;BME280;46715;40.642;-7.920;2023-05-03T03:02:08;95790.75;;;19.89;60.06
60874;BME280;46715;40.642;-7.920;2023-05-03T03:04:11;95788.19;;;19.93;59.50
60874;BME280;46715;40.642;-7.920;2023-05-03T03:06:12;95787.50;;;19.96;60.03
60874;BME280;46715;40.642;-7.920;2023-05-03T03:08:15;95787.19;;;19.98;60.02
60874;BME280;46715;40.642;-7.920;2023-05-03T03:10:15;95792.81;;;19.96;60.35
60874;BME280;46715;40.642;-7.920;2023-05-03T03:12:17;95806.31;;;19.91;60.91
60874;BME280;46715;40.642;-7.920;2023-05-03T03:14:17;95804.41;;;19.91;60.18
60874;BME280;46715;40.642;-7.920;2023-05-03T03:16:18;95803.38;;;19.96;59.28
60874;BME280;46715;40.642;-7.920;2023-05-03T03:18:19;95793.34;;;20.02;59.22
60874;BME280;46715;40.642;-7.920;2023-05-03T03:20:20;95798.47;;;20.10;59.04
60874;BME280;46715;40.642;-7.920;2023-05-03T03:22:22;95815.97;;;20.15;58.93
60874;BME280;46715;40.642;-7.920;2023-05-03T03:24:22;95818.22;;;20.13;58.69
60874;BME280;46715;40.642;-7.920;2023-05-03T03:26:25;95803.53;;;20.16;58.23
60874;BME280;46715;40.642;-7.920;2023-05-03T03:28:26;95792.16;;;20.15;58.36
60874;BME280;46715;40.642;-7.920;2023-05-03T03:30:28;95784.47;;;20.10;58.49
60874;BME280;46715;40.642;-7.920;2023-05-03T03:32:40;95780.72;;;20.11;58.48
60874;BME280;46715;40.642;-7.920;2023-05-03T03:34:45;95776.28;;;20.15;58.47
60874;BME280;46715;40.642;-7.920;2023-05-03T03:36:46;95758.00;;;20.10;58.54
60874;BME280;46715;40.642;-7.920;2023-05-03T03:38:48;95751.25;;;20.13;58.53
60874;BME280;46715;40.642;-7.920;2023-05-03T03:40:49;95730.06;;;20.13;58.87
60874;BME280;46715;40.642;-7.920;2023-05-03T03:42:52;95712.69;;;20.12;58.25
60874;BME280;46715;40.642;-7.920;2023-05-03T03:44:53;95743.41;;;20.16;57.80
60874;BME280;46715;40.642;-7.920;2023-05-03T03:46:54;95752.44;;;20.15;58.18
60874;BME280;46715;40.642;-7.920;2023-05-03T03:48:56;95767.75;;;20.06;59.66
60874;BME280;46715;40.642;-7.920;2023-05-03T03:51:00;95775.22;;;19.88;60.22
60874;BME280;46715;40.642;-7.920;2023-05-03T03:53:08;95773.59;;;19.83;60.39
60874;BME280;46715;40.642;-7.920;2023-05-03T03:55:13;95774.47;;;19.75;60.81
60874;BME280;46715;40.642;-7.920;2023-05-03T03:57:14;95769.88;;;19.72;60.62
60874;BME280;46715;40.642;-7.920;2023-05-03T03:59:15;95769.56;;;19.61;60.92
60874;BME280;46715;40.642;-7.920;2023-05-03T04:01:16;95754.19;;;19.51;61.17
60874;BME280;46715;40.642;-7.920;2023-05-03T04:03:17;95750.00;;;19.50;61.06
60874;BME280;46715;40.642;-7.920;2023-05-03T04:05:19;95739.88;;;19.52;60.95
60874;BME280;46715;40.642;-7.920;2023-05-03T04:07:20;95748.81;;;19.47;61.62
60874;BME280;46715;40.642;-7.920;2023-05-03T04:09:21;95743.84;;;19.46;60.92
60874;BME280;46715;40.642;-7.920;2023-05-03T04:11:23;95760.41;;;19.42;60.86
60874;BME280;46715;40.642;-7.920;2023-05-03T04:13:29;95769.44;;;19.41;60.86
60874;BME280;46715;40.642;-7.920;2023-05-03T04:15:30;95763.28;;;19.37;61.33
60874;BME280;46715;40.642;-7.920;2023-05-03T04:17:33;95734.97;;;19.38;61.65
60874;BME280;46715;40.642;-7.920;2023-05-03T04:19:37;95738.66;;;19.21;62.22
60874;BME280;46715;40.642;-7.920;2023-05-03T04:21:39;95735.41;;;19.12;61.99
60874;BME280;46715;40.642;-7.920;2023-05-03T04:23:40;95729.81;;;19.01;62.55
60874;BME280;46715;40.642;-7.920;2023-05-03T04:25:43;95735.66;;;18.94;62.89
60874;BME280;46715;40.642;-7.920;2023-05-03T04:27:46;95729.06;;;18.88;63.06
60874;BME280;46715;40.642;-7.920;2023-05-03T04:29:48;95720.13;;;18.80;63.92
60874;BME280;46715;40.642;-7.920;2023-05-03T04:31:51;95711.44;;;18.80;64.11
60874;BME280;46715;40.642;-7.920;2023-05-03T04:33:52;95699.56;;;18.73;64.63
60874;BME280;46715;40.642;-7.920;2023-05-03T04:35:53;95705.50;;;18.70;64.23
60874;BME280;46715;40.642;-7.920;2023-05-03T04:37:54;95722.75;;;18.80;63.11
60874;BME280;46715;40.642;-7.920;2023-05-03T04:39:58;95724.53;;;18.88;63.31
60874;BME280;46715;40.642;-7.920;2023-05-03T04:41:59;95726.84;;;18.90;63.29
60874;BME280;46715;40.642;-7.920;2023-05-03T04:44:01;95720.78;;;18.77;63.40
60874;BME280;46715;40.642;-7.920;2023-05-03T04:46:02;95730.47;;;18.73;63.22
60874;BME280;46715;40.642;-7.920;2023-05-03T04:48:05;95725.97;;;18.73;63.43
60874;BME280;46715;40.642;-7.920;2023-05-03T04:50:07;95720.69;;;18.73;62.93
60874;BME280;46715;40.642;-7.920;2023-05-03T04:52:14;95721.47;;;18.74;63.00
60874;BME280;46715;40.642;-7.920;2023-05-03T04:54:16;95725.88;;;18.70;63.04
60874;BME280;46715;40.642;-7.920;2023-05-03T04:56:18;95718.59;;;18.67;63.14
60874;BME280;46715;40.642;-7.920;2023-05-03T04:58:26;95715.31;;;18.70;62.48
60874;BME280;46715;40.642;-7.920;2023-05-03T05:00:29;95710.03;;;18.70;62.18
60874;BME280;46715;40.642;-7.920;2023-05-03T05:02:36;95708.91;;;18.71;62.00
60874;BME280;46715;40.642;-7.920;2023-05-03T05:04:38;95717.94;;;18.70;61.51
60874;BME280;46715;40.642;-7.920;2023-05-03T05:06:40;95717.63;;;18.71;61.38
60874;BME280;46715;40.642;-7.920;2023-05-03T05:08:42;95722.66;;;18.77;61.60
60874;BME280;46715;40.642;-7.920;2023-05-03T05:10:46;95728.25;;;18.75;61.78
60874;BME280;46715;40.642;-7.920;2023-05-03T05:12:51;95739.63;;;18.63;62.17
60874;BME280;46715;40.642;-7.920;2023-05-03T05:14:53;95746.75;;;18.50;62.26
60874;BME280;46715;40.642;-7.920;2023-05-03T05:16:53;95757.53;;;18.20;64.41
60874;BME280;46715;40.642;-7.920;2023-05-03T05:18:55;95754.00;;;18.04;64.99
60874;BME280;46715;40.642;-7.920;2023-05-03T05:20:59;95746.00;;;17.79;65.76
60874;BME280;46715;40.642;-7.920;2023-05-03T05:23:00;95748.19;;;17.77;65.71
60874;BME280;46715;40.642;-7.920;2023-05-03T05:25:02;95751.28;;;17.79;65.56
60874;BME280;46715;40.642;-7.920;2023-05-03T05:27:05;95758.53;;;17.82;65.70
60874;BME280;46715;40.642;-7.920;2023-05-03T05:29:07;95762.38;;;17.85;65.81
60874;BME280;46715;40.642;-7.920;2023-05-03T05:31:08;95766.56;;;17.86;65.89
60874;BME280;46715;40.642;-7.920;2023-05-03T05:33:10;95767.31;;;17.86;66.40
60874;BME280;46715;40.642;-7.920;2023-05-03T05:35:12;95764.66;;;17.95;66.41
60874;BME280;46715;40.642;-7.920;2023-05-03T05:37:13;95758.38;;;18.00;66.51
60874;BME280;46715;40.642;-7.920;2023-05-03T05:39:14;95764.91;;;17.81;67.22
60874;BME280;46715;40.642;-7.920;2023-05-03T05:41:15;95767.94;;;17.71;67.01
60874;BME280;46715;40.642;-7.920;2023-05-03T05:43:17;95766.94;;;17.63;67.14
60874;BME280;46715;40.642;-7.920;2023-05-03T05:45:20;95769.56;;;17.63;67.25
60874;BME280;46715;40.642;-7.920;2023-05-03T05:47:22;95776.41;;;17.77;67.29
60874;BME280;46715;40.642;-7.920;2023-05-03T05:49:25;95768.78;;;17.84;67.27
60874;BME280;46715;40.642;-7.920;2023-05-03T05:51:26;95778.28;;;17.76;67.48
60874;BME280;46715;40.642;-7.920;2023-05-03T05:53:28;95796.19;;;17.70;67.96
60874;BME280;46715;40.642;-7.920;2023-05-03T05:55:34;95792.66;;;17.66;68.19
60874;BME280;46715;40.642;-7.920;2023-05-03T05:57:35;95802.22;;;17.71;68.37
60874;BME280;46715;40.642;-7.920;2023-05-03T05:59:38;95798.31;;;17.77;68.00
60874;BME280;46715;40.642;-7.920;2023-05-03T06:01:40;95810.63;;;17.85;67.34
60874;BME280;46715;40.642;-7.920;2023-05-03T06:03:49;95817.06;;;17.97;67.32
60874;BME280;46715;40.642;-7.920;2023-05-03T06:05:50;95817.63;;;18.02;66.98
60874;BME280;46715;40.642;-7.920;2023-05-03T06:07:51;95817.13;;;18.09;66.54
60874;BME280;46715;40.642;-7.920;2023-05-03T06:09:52;95810.50;;;18.15;66.34
60874;BME280;46715;40.642;-7.920;2023-05-03T06:11:53;95819.25;;;18.28;66.31
60874;BME280;46715;40.642;-7.920;2023-05-03T06:13:54;95818.50;;;18.40;66.05
60874;BME280;46715;40.642;-7.920;2023-05-03T06:15:57;95816.88;;;18.60;65.56
60874;BME280;46715;40.642;-7.920;2023-05-03T06:17:58;95818.59;;;18.68;65.36
60874;BME280;46715;40.642;-7.920;2023-05-03T06:19:59;95811.91;;;18.71;65.27
60874;BME280;46715;40.642;-7.920;2023-05-03T06:22:00;95814.78;;;18.78;65.06
60874;BME280;46715;40.642;-7.920;2023-05-03T06:24:02;95829.28;;;18.84;64.65
60874;BME280;46715;40.642;-7.920;2023-05-03T06:26:03;95827.09;;;18.86;64.19
60874;BME280;46715;40.642;-7.920;2023-05-03T06:28:04;95827.09;;;18.86;64.32
60874;BME280;46715;40.642;-7.920;2023-05-03T06:30:08;95821.28;;;18.93;64.55
60874;BME280;46715;40.642;-7.920;2023-05-03T06:32:10;95825.34;;;19.03;64.61
60874;BME280;46715;40.642;-7.920;2023-05-03T06:34:11;95830.28;;;19.17;64.32
60874;BME280;46715;40.642;-7.920;2023-05-03T06:36:14;95810.31;;;19.32;64.05
60874;BME280;46715;40.642;-7.920;2023-05-03T06:38:16;95812.03;;;19.52;63.61
60874;BME280;46715;40.642;-7.920;2023-05-03T06:40:17;95814.06;;;19.71;61.54
60874;BME280;46715;40.642;-7.920;2023-05-03T06:42:18;95821.06;;;19.92;62.02
60874;BME280;46715;40.642;-7.920;2023-05-03T06:44:19;95816.47;;;20.05;62.22
60874;BME280;46715;40.642;-7.920;2023-05-03T06:46:20;95811.88;;;20.18;62.57
60874;BME280;46715;40.642;-7.920;2023-05-03T06:48:21;95809.94;;;20.31;62.59
60874;BME280;46715;40.642;-7.920;2023-05-03T06:50:22;95817.78;;;20.43;62.15
60874;BME280;46715;40.642;-7.920;2023-05-03T06:52:24;95812.84;;;20.57;59.98
60874;BME280;46715;40.642;-7.920;2023-05-03T06:54:25;95813.22;;;20.72;58.20
60874;BME280;46715;40.642;-7.920;2023-05-03T06:56:25;95811.31;;;20.88;57.82
60874;BME280;46715;40.642;-7.920;2023-05-03T06:58:27;95820.56;;;21.14;56.72
60874;BME280;46715;40.642;-7.920;2023-05-03T07:00:28;95816.44;;;21.33;58.34
60874;BME280;46715;40.642;-7.920;2023-05-03T07:02:30;95816.00;;;21.50;58.42
60874;BME280;46715;40.642;-7.920;2023-05-03T07:04:31;95811.44;;;21.67;57.64
60874;BME280;46715;40.642;-7.920;2023-05-03T07:06:32;95812.06;;;21.79;57.38
60874;BME280;46715;40.642;-7.920;2023-05-03T07:08:33;95813.16;;;21.98;57.58
60874;BME280;46715;40.642;-7.920;2023-05-03T07:10:33;95812.25;;;22.33;55.61
60874;BME280;46715;40.642;-7.920;2023-05-03T07:12:35;95817.34;;;22.65;54.31
60874;BME280;46715;40.642;-7.920;2023-05-03T07:14:37;95814.47;;;23.04;52.07
60874;BME280;46715;40.642;-7.920;2023-05-03T07:16:38;95812.91;;;23.57;49.45
60874;BME280;46715;40.642;-7.920;2023-05-03T07:18:39;95812.19;;;23.94;48.39
60874;BME280;46715;40.642;-7.920;2023-05-03T07:20:40;95821.97;;;24.20;46.89
60874;BME280;46715;40.642;-7.920;2023-05-03T07:22:41;95825.78;;;24.64;46.27
60874;BME280;46715;40.642;-7.920;2023-05-03T07:24:42;95824.69;;;25.31;45.25
60874;BME280;46715;40.642;-7.920;2023-05-03T07:26:43;95815.88;;;26.19;42.58
60874;BME280;46715;40.642;-7.920;2023-05-03T07:28:44;95820.03;;;27.35;40.01
60874;BME280;46715;40.642;-7.920;2023-05-03T07:30:45;95815.41;;;28.28;37.74
60874;BME280;46715;40.642;-7.920;2023-05-03T07:32:46;95826.47;;;28.86;37.65
60874;BME280;46715;40.642;-7.920;2023-05-03T07:34:48;95825.72;;;29.24;37.10
60874;BME280;46715;40.642;-7.920;2023-05-03T07:36:49;95830.09;;;28.62;36.50
60874;BME280;46715;40.642;-7.920;2023-05-03T07:38:51;95831.03;;;28.37;36.74
60874;BME280;46715;40.642;-7.920;2023-05-03T07:40:52;95824.63;;;27.28;37.86
60874;BME280;46715;40.642;-7.920;2023-05-03T07:42:53;95822.00;;;26.48;39.90
60874;BME280;46715;40.642;-7.920;2023-05-03T07:44:54;95828.38;;;25.90;41.38
60874;BME280;46715;40.642;-7.920;2023-05-03T07:46:55;95827.53;;;25.60;41.94
60874;BME280;46715;40.642;-7.920;2023-05-03T07:48:57;95827.75;;;26.25;41.89
60874;BME280;46715;40.642;-7.920;2023-05-03T07:50:58;95828.31;;;27.70;39.52
60874;BME280;46715;40.642;-7.920;2023-05-03T07:52:59;95832.22;;;29.23;36.86
60874;BME280;46715;40.642;-7.920;2023-05-03T07:54:59;95825.41;;;30.66;34.19
60874;BME280;46715;40.642;-7.920;2023-05-03T07:57:03;95818.56;;;31.69;32.53
60874;BME280;46715;40.642;-7.920;2023-05-03T07:59:07;95827.47;;;32.55;30.73
60874;BME280;46715;40.642;-7.920;2023-05-03T08:01:11;95821.66;;;32.73;30.23
60874;BME280;46715;40.642;-7.920;2023-05-03T08:03:12;95830.50;;;32.41;29.65
60874;BME280;46715;40.642;-7.920;2023-05-03T08:05:13;95826.38;;;32.69;28.94
60874;BME280;46715;40.642;-7.920;2023-05-03T08:07:16;95825.19;;;32.37;28.70
60874;BME280;46715;40.642;-7.920;2023-05-03T08:09:18;95823.78;;;32.82;29.39
60874;BME280;46715;40.642;-7.920;2023-05-03T08:11:18;95825.19;;;33.33;28.06
60874;BME280;46715;40.642;-7.920;2023-05-03T08:13:20;95827.78;;;33.36;28.31
60874;BME280;46715;40.642;-7.920;2023-05-03T08:15:22;95827.88;;;33.33;28.45
60874;BME280;46715;40.642;-7.920;2023-05-03T08:17:23;95831.03;;;34.12;27.78
60874;BME280;46715;40.642;-7.920;2023-05-03T08:19:24;95818.69;;;33.30;27.41
60874;BME280;46715;40.642;-7.920;2023-05-03T08:21:25;95819.91;;;33.12;26.84
60874;BME280;46715;40.642;-7.920;2023-05-03T08:23:28;95821.75;;;32.86;27.49
60874;BME280;46715;40.642;-7.920;2023-05-03T08:25:29;95832.34;;;32.93;27.32
60874;BME280;46715;40.642;-7.920;2023-05-03T08:27:31;95840.88;;;31.89;28.56
60874;BME280;46715;40.642;-7.920;2023-05-03T08:29:35;95839.19;;;31.79;28.53
60874;BME280;46715;40.642;-7.920;2023-05-03T08:31:37;95834.13;;;31.81;28.39
60874;BME280;46715;40.642;-7.920;2023-05-03T08:33:38;95837.50;;;32.38;28.47
60874;BME280;46715;40.642;-7.920;2023-05-03T08:35:39;95838.06;;;33.41;27.43
60874;BME280;46715;40.642;-7.920;2023-05-03T08:37:41;95839.03;;;34.67;25.69
60874;BME280;46715;40.642;-7.920;2023-05-03T08:39:43;95828.31;;;35.11;24.24
60874;BME280;46715;40.642;-7.920;2023-05-03T08:41:46;95840.44;;;33.81;25.78
60874;BME280;46715;40.642;-7.920;2023-05-03T08:43:51;95835.47;;;33.80;25.61
60874;BME280;46715;40.642;-7.920;2023-05-03T08:45:53;95832.88;;;34.54;25.10
60874;BME280;46715;40.642;-7.920;2023-05-03T08:47:58;95844.28;;;33.25;25.76
60874;BME280;46715;40.642;-7.920;2023-05-03T08:50:03;95837.78;;;33.65;25.52
60874;BME280;46715;40.642;-7.920;2023-05-03T08:52:05;95846.53;;;33.56;26.62
60874;BME280;46715;40.642;-7.920;2023-05-03T08:54:06;95848.09;;;33.28;26.39
60874;BME280;46715;40.642;-7.920;2023-05-03T08:56:08;95846.88;;;32.67;26.39
60874;BME280;46715;40.642;-7.920;2023-05-03T08:58:10;95847.81;;;33.22;26.72
60874;BME280;46715;40.642;-7.920;2023-05-03T09:00:12;95854.16;;;33.16;26.71
60874;BME280;46715;40.642;-7.920;2023-05-03T09:02:16;95854.84;;;33.20;26.53
60874;BME280;46715;40.642;-7.920;2023-05-03T09:04:17;95849.03;;;33.05;27.09
60874;BME280;46715;40.642;-7.920;2023-05-03T09:06:22;95851.91;;;33.86;25.93
60874;BME280;46715;40.642;-7.920;2023-05-03T09:08:27;95855.06;;;34.61;24.97
60874;BME280;46715;40.642;-7.920;2023-05-03T09:10:37;95850.59;;;33.77;25.95
60874;BME280;46715;40.642;-7.920;2023-05-03T09:12:40;95850.41;;;32.63;26.29
60874;BME280;46715;40.642;-7.920;2023-05-03T09:14:45;95854.13;;;31.40;27.86
60874;BME280;46715;40.642;-7.920;2023-05-03T09:16:46;95869.81;;;30.54;29.68
60874;BME280;46715;40.642;-7.920;2023-05-03T09:18:59;95857.66;;;31.17;30.13
60874;BME280;46715;40.642;-7.920;2023-05-03T09:21:08;95864.31;;;30.34;30.04
60874;BME280;46715;40.642;-7.920;2023-05-03T09:25:42;95866.34;;;32.25;28.23
60874;BME280;46715;40.642;-7.920;2023-05-03T09:27:43;95873.69;;;32.04;28.12
60874;BME280;46715;40.642;-7.920;2023-05-03T09:29:43;95876.13;;;31.38;28.17
60874;BME280;46715;40.642;-7.920;2023-05-03T09:31:57;95867.66;;;30.69;28.65
60874;BME280;46715;40.642;-7.920;2023-05-03T09:33:59;95874.00;;;30.27;29.00
60874;BME280;46715;40.642;-7.920;2023-05-03T09:36:04;95866.59;;;30.08;30.03
60874;BME280;46715;40.642;-7.920;2023-05-03T09:38:05;95857.72;;;30.66;30.52
60874;BME280;46715;40.642;-7.920;2023-05-03T09:40:07;95856.94;;;31.76;27.96
60874;BME280;46715;40.642;-7.920;2023-05-03T09:42:11;95862.81;;;32.28;27.67
60874;BME280;46715;40.642;-7.920;2023-05-03T09:44:12;95864.84;;;32.40;27.41
60874;BME280;46715;40.642;-7.920;2023-05-03T09:46:13;95865.00;;;31.96;27.05
60874;BME280;46715;40.642;-7.920;2023-05-03T09:48:14;95856.31;;;31.89;27.75
60874;BME280;46715;40.642;-7.920;2023-05-03T09:50:15;95862.44;;;31.29;27.25
60874;BME280;46715;40.642;-7.920;2023-05-03T09:52:16;95866.94;;;29.45;29.59
60874;BME280;46715;40.642;-7.920;2023-05-03T09:54:17;95859.94;;;29.54;30.35
60874;BME280;46715;40.642;-7.920;2023-05-03T09:56:18;95873.53;;;28.95;30.84
60874;BME280;46715;40.642;-7.920;2023-05-03T09:58:23;95863.56;;;29.37;29.55
60874;BME280;46715;40.642;-7.920;2023-05-03T10:00:25;95862.94;;;29.60;29.73
60874;BME280;46715;40.642;-7.920;2023-05-03T10:02:26;95879.75;;;29.30;30.25
60874;BME280;46715;40.642;-7.920;2023-05-03T10:04:28;95861.50;;;29.83;28.94
60874;BME280;46715;40.642;-7.920;2023-05-03T10:06:33;95853.31;;;30.52;28.74
60874;BME280;46715;40.642;-7.920;2023-05-03T10:08:46;95855.06;;;31.09;28.01
60874;BME280;46715;40.642;-7.920;2023-05-03T10:10:49;95845.41;;;30.88;27.46
60874;BME280;46715;40.642;-7.920;2023-05-03T10:12:53;95836.34;;;31.02;26.73
60874;BME280;46715;40.642;-7.920;2023-05-03T10:14:56;95838.13;;;31.13;27.28
60874;BME280;46715;40.642;-7.920;2023-05-03T10:16:59;95847.66;;;31.37;26.02
60874;BME280;46715;40.642;-7.920;2023-05-03T10:19:08;95837.63;;;30.70;27.29
60874;BME280;46715;40.642;-7.920;2023-05-03T10:21:13;95832.72;;;32.09;25.58
60874;BME280;46715;40.642;-7.920;2023-05-03T10:23:18;95836.47;;;31.79;25.38
60874;BME280;46715;40.642;-7.920;2023-05-03T10:25:18;95849.13;;;32.19;24.59
60874;BME280;46715;40.642;-7.920;2023-05-03T10:27:19;95849.16;;;32.35;24.45
60874;BME280;46715;40.642;-7.920;2023-05-03T10:31:46;95849.56;;;32.83;24.53
60874;BME280;46715;40.642;-7.920;2023-05-03T10:33:47;95843.69;;;33.18;24.16
60874;BME280;46715;40.642;-7.920;2023-05-03T10:35:49;95847.03;;;32.92;23.94
60874;BME280;46715;40.642;-7.920;2023-05-03T10:37:54;95849.16;;;33.73;23.71
60874;BME280;46715;40.642;-7.920;2023-05-03T10:40:18;95841.16;;;32.81;24.32
60874;BME280;46715;40.642;-7.920;2023-05-03T10:42:23;95838.41;;;30.94;26.34
60874;BME280;46715;40.642;-7.920;2023-05-03T10:44:27;95847.72;;;29.81;27.84
60874;BME280;46715;40.642;-7.920;2023-05-03T10:46:30;95848.06;;;30.14;29.05
60874;BME280;46715;40.642;-7.920;2023-05-03T10:48:32;95851.44;;;30.21;27.85
60874;BME280;46715;40.642;-7.920;2023-05-03T10:50:33;95840.06;;;30.10;27.71
60874;BME280;46715;40.642;-7.920;2023-05-03T10:54:35;95837.53;;;30.26;27.71